sensor_id;sensor_type;location;lat;lon;timestamp;temperature;humidity
53978;DHT22;39886;47.984;-1.586;2023-11-21T00:00:01;18.50;84.50
53978;DHT22;39886;47.984;-1.586;2023-11-21T00:02:27;18.60;84.60
53978;DHT22;39886;47.984;-1.586;2023-11-21T00:04:53;18.60;84.60
53978;DHT22;39886;47.984;-1.586;2023-11-21T00:07:19;18.60;84.60
53978;DHT22;39886;47.984;-1.586;2023-11-21T00:09:46;18.60;84.60
53978;DHT22;39886;47.984;-1.586;2023-11-21T00:12:12;18.60;84.60
53978;DHT22;39886;47.984;-1.586;2023-11-21T00:14:39;18.50;84.50
53978;DHT22;39886;47.984;-1.586;2023-11-21T00:17:06;18.50;84.60
53978;DHT22;39886;47.984;-1.586;2023-11-21T00:19:32;18.50;84.60
53978;DHT22;39886;47.984;-1.586;2023-11-21T00:21:58;18.50;84.60
53978;DHT22;39886;47.984;-1.586;2023-11-21T00:24:25;18.50;84.60
53978;DHT22;39886;47.984;-1.586;2023-11-21T00:26:51;18.50;84.60
53978;DHT22;39886;47.984;-1.586;2023-11-21T00:29:17;18.50;84.60
53978;DHT22;39886;47.984;-1.586;2023-11-21T00:31:44;18.50;84.60
53978;DHT22;39886;47.984;-1.586;2023-11-21T00:34:11;18.50;84.60
53978;DHT22;39886;47.984;-1.586;2023-11-21T00:36:37;18.50;84.60
53978;DHT22;39886;47.984;-1.586;2023-11-21T00:39:03;18.50;84.60
53978;DHT22;39886;47.984;-1.586;2023-11-21T00:41:29;18.50;84.60
53978;DHT22;39886;47.984;-1.586;2023-11-21T00:43:55;18.50;84.60
53978;DHT22;39886;47.984;-1.586;2023-11-21T00:46:21;18.50;84.60
53978;DHT22;39886;47.984;-1.586;2023-11-21T00:48:46;18.40;84.60
53978;DHT22;39886;47.984;-1.586;2023-11-21T00:51:12;18.50;84.70
53978;DHT22;39886;47.984;-1.586;2023-11-21T00:53:38;18.50;84.70
53978;DHT22;39886;47.984;-1.586;2023-11-21T00:56:05;18.50;84.60
53978;DHT22;39886;47.984;-1.586;2023-11-21T00:58:31;18.50;84.70
53978;DHT22;39886;47.984;-1.586;2023-11-21T01:00:56;18.40;84.60
53978;DHT22;39886;47.984;-1.586;2023-11-21T01:03:23;18.40;84.50
53978;DHT22;39886;47.984;-1.586;2023-11-21T01:05:48;18.40;84.60
53978;DHT22;39886;47.984;-1.586;2023-11-21T01:08:15;18.40;84.70
53978;DHT22;39886;47.984;-1.586;2023-11-21T01:10:41;18.40;84.60
53978;DHT22;39886;47.984;-1.586;2023-11-21T01:13:07;18.40;84.60
53978;DHT22;39886;47.984;-1.586;2023-11-21T01:15:33;18.40;84.60
53978;DHT22;39886;47.984;-1.586;2023-11-21T01:17:59;18.40;84.60
53978;DHT22;39886;47.984;-1.586;2023-11-21T01:20:25;18.40;84.60
53978;DHT22;39886;47.984;-1.586;2023-11-21T01:22:51;18.40;84.60
53978;DHT22;39886;47.984;-1.586;2023-11-21T01:25:19;18.40;84.60
53978;DHT22;39886;47.984;-1.586;2023-11-21T01:27:46;18.40;84.60
53978;DHT22;39886;47.984;-1.586;2023-11-21T01:30:13;18.40;84.70
53978;DHT22;39886;47.984;-1.586;2023-11-21T01:32:39;18.40;84.70
53978;DHT22;39886;47.984;-1.586;2023-11-21T01:35:05;18.40;84.70
53978;DHT22;39886;47.984;-1.586;2023-11-21T01:37:35;18.40;84.70
53978;DHT22;39886;47.984;-1.586;2023-11-21T01:40:00;18.40;84.60
53978;DHT22;39886;47.984;-1.586;2023-11-21T01:42:27;18.40;84.70
53978;DHT22;39886;47.984;-1.586;2023-11-21T01:44:55;18.40;84.70
53978;DHT22;39886;47.984;-1.586;2023-11-21T01:47:20;18.40;84.70
53978;DHT22;39886;47.984;-1.586;2023-11-21T01:49:46;18.40;84.70
53978;DHT22;39886;47.984;-1.586;2023-11-21T01:52:13;18.40;84.60
53978;DHT22;39886;47.984;-1.586;2023-11-21T01:54:39;18.40;84.70
53978;DHT22;39886;47.984;-1.586;2023-11-21T01:57:05;18.40;84.60
53978;DHT22;39886;47.984;-1.586;2023-11-21T01:59:38;18.40;84.60
53978;DHT22;39886;47.984;-1.586;2023-11-21T02:02:08;18.40;84.60
53978;DHT22;39886;47.984;-1.586;2023-11-21T02:04:35;18.40;84.60
53978;DHT22;39886;47.984;-1.586;2023-11-21T02:07:04;18.30;84.60
53978;DHT22;39886;47.984;-1.586;2023-11-21T02:09:33;18.30;84.60
53978;DHT22;39886;47.984;-1.586;2023-11-21T02:12:00;18.30;84.60
53978;DHT22;39886;47.984;-1.586;2023-11-21T02:14:26;18.30;84.60
53978;DHT22;39886;47.984;-1.586;2023-11-21T02:16:53;18.30;84.60
53978;DHT22;39886;47.984;-1.586;2023-11-21T02:19:21;18.30;84.60
53978;DHT22;39886;47.984;-1.586;2023-11-21T02:21:53;18.30;84.60
53978;DHT22;39886;47.984;-1.586;2023-11-21T02:24:20;18.30;84.50
53978;DHT22;39886;47.984;-1.586;2023-11-21T02:26:47;18.30;84.60
53978;DHT22;39886;47.984;-1.586;2023-11-21T02:29:12;18.30;84.60
53978;DHT22;39886;47.984;-1.586;2023-11-21T02:31:39;18.30;84.60
53978;DHT22;39886;47.984;-1.586;2023-11-21T02:34:14;18.30;84.60
53978;DHT22;39886;47.984;-1.586;2023-11-21T02:36:40;18.30;84.60
53978;DHT22;39886;47.984;-1.586;2023-11-21T02:39:06;18.30;84.60
53978;DHT22;39886;47.984;-1.586;2023-11-21T02:41:33;18.30;84.60
53978;DHT22;39886;47.984;-1.586;2023-11-21T02:44:00;18.30;84.60
53978;DHT22;39886;47.984;-1.586;2023-11-21T02:46:26;18.30;84.60
53978;DHT22;39886;47.984;-1.586;2023-11-21T02:48:52;18.30;84.60
53978;DHT22;39886;47.984;-1.586;2023-11-21T02:51:21;18.20;84.50
53978;DHT22;39886;47.984;-1.586;2023-11-21T02:53:46;18.20;84.50
53978;DHT22;39886;47.984;-1.586;2023-11-21T02:56:12;18.20;84.50
53978;DHT22;39886;47.984;-1.586;2023-11-21T02:58:41;18.30;84.60
53978;DHT22;39886;47.984;-1.586;2023-11-21T03:01:09;18.20;84.50
53978;DHT22;39886;47.984;-1.586;2023-11-21T03:03:36;18.20;84.60
53978;DHT22;39886;47.984;-1.586;2023-11-21T03:06:06;18.20;84.50
53978;DHT22;39886;47.984;-1.586;2023-11-21T03:08:32;18.20;84.60
53978;DHT22;39886;47.984;-1.586;2023-11-21T03:10:58;18.20;84.60
53978;DHT22;39886;47.984;-1.586;2023-11-21T03:13:24;18.20;84.50
53978;DHT22;39886;47.984;-1.586;2023-11-21T03:15:49;18.20;84.50
53978;DHT22;39886;47.984;-1.586;2023-11-21T03:18:15;18.20;84.60
53978;DHT22;39886;47.984;-1.586;2023-11-21T03:20:42;18.20;84.50
53978;DHT22;39886;47.984;-1.586;2023-11-21T03:23:12;18.20;84.50
53978;DHT22;39886;47.984;-1.586;2023-11-21T03:25:38;18.20;84.50
53978;DHT22;39886;47.984;-1.586;2023-11-21T03:28:03;18.20;84.60
53978;DHT22;39886;47.984;-1.586;2023-11-21T03:30:29;18.20;84.50
53978;DHT22;39886;47.984;-1.586;2023-11-21T03:32:56;18.20;84.50
53978;DHT22;39886;47.984;-1.586;2023-11-21T03:35:22;18.20;84.60
53978;DHT22;39886;47.984;-1.586;2023-11-21T03:37:47;18.20;84.50
53978;DHT22;39886;47.984;-1.586;2023-11-21T03:40:13;18.20;84.50
53978;DHT22;39886;47.984;-1.586;2023-11-21T03:42:39;18.20;84.60
53978;DHT22;39886;47.984;-1.586;2023-11-21T03:45:06;18.20;84.50
53978;DHT22;39886;47.984;-1.586;2023-11-21T03:47:32;18.20;84.50
53978;DHT22;39886;47.984;-1.586;2023-11-21T03:49:58;18.10;85.10
53978;DHT22;39886;47.984;-1.586;2023-11-21T03:52:24;18.20;84.50
53978;DHT22;39886;47.984;-1.586;2023-11-21T03:54:50;18.10;84.50
53978;DHT22;39886;47.984;-1.586;2023-11-21T03:57:19;18.20;84.50
53978;DHT22;39886;47.984;-1.586;2023-11-21T03:59:45;18.20;84.50
53978;DHT22;39886;47.984;-1.586;2023-11-21T04:02:10;18.10;84.50
53978;DHT22;39886;47.984;-1.586;2023-11-21T04:04:36;18.10;84.50
53978;DHT22;39886;47.984;-1.586;2023-11-21T04:07:02;18.10;84.50
53978;DHT22;39886;47.984;-1.586;2023-11-21T04:09:28;18.10;84.50
53978;DHT22;39886;47.984;-1.586;2023-11-21T04:11:54;18.10;84.50
53978;DHT22;39886;47.984;-1.586;2023-11-21T04:14:21;18.10;84.50
53978;DHT22;39886;47.984;-1.586;2023-11-21T04:16:47;18.10;84.50
53978;DHT22;39886;47.984;-1.586;2023-11-21T04:19:14;18.10;84.50
53978;DHT22;39886;47.984;-1.586;2023-11-21T04:21:42;18.10;84.50
53978;DHT22;39886;47.984;-1.586;2023-11-21T04:24:09;18.10;84.50
53978;DHT22;39886;47.984;-1.586;2023-11-21T04:26:34;18.10;84.50
53978;DHT22;39886;47.984;-1.586;2023-11-21T04:29:00;18.10;84.50
53978;DHT22;39886;47.984;-1.586;2023-11-21T04:31:26;18.10;84.50
53978;DHT22;39886;47.984;-1.586;2023-11-21T04:33:51;18.10;84.50
53978;DHT22;39886;47.984;-1.586;2023-11-21T04:36:17;18.10;84.50
53978;DHT22;39886;47.984;-1.586;2023-11-21T04:38:43;18.10;84.50
53978;DHT22;39886;47.984;-1.586;2023-11-21T04:41:09;18.10;84.50
53978;DHT22;39886;47.984;-1.586;2023-11-21T04:43:35;18.10;84.50
53978;DHT22;39886;47.984;-1.586;2023-11-21T04:46:00;18.10;84.50
53978;DHT22;39886;47.984;-1.586;2023-11-21T04:48:27;18.10;84.50
53978;DHT22;39886;47.984;-1.586;2023-11-21T04:50:53;18.10;84.50
53978;DHT22;39886;47.984;-1.586;2023-11-21T04:53:19;18.10;84.50
53978;DHT22;39886;47.984;-1.586;2023-11-21T04:55:45;18.10;84.50
53978;DHT22;39886;47.984;-1.586;2023-11-21T04:58:11;18.10;84.50
53978;DHT22;39886;47.984;-1.586;2023-11-21T05:00:37;18.10;84.50
53978;DHT22;39886;47.984;-1.586;2023-11-21T05:03:03;18.10;84.40
53978;DHT22;39886;47.984;-1.586;2023-11-21T05:05:30;18.10;84.40
53978;DHT22;39886;47.984;-1.586;2023-11-21T05:07:56;18.00;84.30
53978;DHT22;39886;47.984;-1.586;2023-11-21T05:10:22;18.10;84.40
53978;DHT22;39886;47.984;-1.586;2023-11-21T05:12:48;18.10;84.40
53978;DHT22;39886;47.984;-1.586;2023-11-21T05:15:16;18.00;84.30
53978;DHT22;39886;47.984;-1.586;2023-11-21T05:17:43;18.00;84.30
53978;DHT22;39886;47.984;-1.586;2023-11-21T05:20:13;18.00;84.40
53978;DHT22;39886;47.984;-1.586;2023-11-21T05:22:43;18.00;84.40
53978;DHT22;39886;47.984;-1.586;2023-11-21T05:25:09;18.00;84.40
53978;DHT22;39886;47.984;-1.586;2023-11-21T05:27:36;18.00;84.30
53978;DHT22;39886;47.984;-1.586;2023-11-21T05:30:02;18.00;84.40
53978;DHT22;39886;47.984;-1.586;2023-11-21T05:32:31;18.00;84.30
53978;DHT22;39886;47.984;-1.586;2023-11-21T05:34:56;18.00;84.40
53978;DHT22;39886;47.984;-1.586;2023-11-21T05:37:22;18.00;84.30
53978;DHT22;39886;47.984;-1.586;2023-11-21T05:39:49;18.00;84.40
53978;DHT22;39886;47.984;-1.586;2023-11-21T05:42:15;18.00;84.30
53978;DHT22;39886;47.984;-1.586;2023-11-21T05:44:42;18.00;84.40
53978;DHT22;39886;47.984;-1.586;2023-11-21T05:47:08;18.10;84.30
53978;DHT22;39886;47.984;-1.586;2023-11-21T05:49:35;18.20;84.00
53978;DHT22;39886;47.984;-1.586;2023-11-21T05:52:01;18.30;83.60
53978;DHT22;39886;47.984;-1.586;2023-11-21T05:54:26;18.40;83.30
53978;DHT22;39886;47.984;-1.586;2023-11-21T05:56:52;18.50;82.90
53978;DHT22;39886;47.984;-1.586;2023-11-21T05:59:18;18.60;82.70
53978;DHT22;39886;47.984;-1.586;2023-11-21T06:01:45;18.70;82.30
53978;DHT22;39886;47.984;-1.586;2023-11-21T06:04:12;18.80;82.00
53978;DHT22;39886;47.984;-1.586;2023-11-21T06:06:38;18.90;81.90
53978;DHT22;39886;47.984;-1.586;2023-11-21T06:09:04;18.90;81.60
53978;DHT22;39886;47.984;-1.586;2023-11-21T06:11:31;19.00;81.40
53978;DHT22;39886;47.984;-1.586;2023-11-21T06:13:57;19.10;81.30
53978;DHT22;39886;47.984;-1.586;2023-11-21T06:16:23;19.10;81.00
53978;DHT22;39886;47.984;-1.586;2023-11-21T06:18:49;19.20;80.90
53978;DHT22;39886;47.984;-1.586;2023-11-21T06:21:15;19.30;80.80
53978;DHT22;39886;47.984;-1.586;2023-11-21T06:23:42;19.30;80.60
53978;DHT22;39886;47.984;-1.586;2023-11-21T06:26:08;19.40;80.50
53978;DHT22;39886;47.984;-1.586;2023-11-21T06:28:35;19.40;80.30
53978;DHT22;39886;47.984;-1.586;2023-11-21T06:31:02;19.50;80.20
53978;DHT22;39886;47.984;-1.586;2023-11-21T06:33:31;19.50;79.90
53978;DHT22;39886;47.984;-1.586;2023-11-21T06:35:58;19.50;79.90
53978;DHT22;39886;47.984;-1.586;2023-11-21T06:38:23;19.60;79.80
53978;DHT22;39886;47.984;-1.586;2023-11-21T06:40:49;19.70;79.60
53978;DHT22;39886;47.984;-1.586;2023-11-21T06:43:15;19.60;79.50
53978;DHT22;39886;47.984;-1.586;2023-11-21T06:45:41;19.70;79.30
53978;DHT22;39886;47.984;-1.586;2023-11-21T06:48:06;19.70;79.30
53978;DHT22;39886;47.984;-1.586;2023-11-21T06:50:32;19.80;79.00
53978;DHT22;39886;47.984;-1.586;2023-11-21T06:52:58;19.80;79.00
53978;DHT22;39886;47.984;-1.586;2023-11-21T06:55:23;19.90;79.00
53978;DHT22;39886;47.984;-1.586;2023-11-21T06:57:49;19.90;78.80
53978;DHT22;39886;47.984;-1.586;2023-11-21T07:00:18;19.90;78.60
53978;DHT22;39886;47.984;-1.586;2023-11-21T07:02:44;20.00;78.60
53978;DHT22;39886;47.984;-1.586;2023-11-21T07:05:10;20.00;78.40
53978;DHT22;39886;47.984;-1.586;2023-11-21T07:07:36;20.00;78.30
53978;DHT22;39886;47.984;-1.586;2023-11-21T07:10:03;20.10;78.20
53978;DHT22;39886;47.984;-1.586;2023-11-21T07:12:30;20.10;78.10
53978;DHT22;39886;47.984;-1.586;2023-11-21T07:14:57;20.10;78.00
53978;DHT22;39886;47.984;-1.586;2023-11-21T07:17:23;20.10;78.00
53978;DHT22;39886;47.984;-1.586;2023-11-21T07:19:49;20.20;77.80
53978;DHT22;39886;47.984;-1.586;2023-11-21T07:22:16;20.20;77.60
53978;DHT22;39886;47.984;-1.586;2023-11-21T07:24:48;20.30;77.60
53978;DHT22;39886;47.984;-1.586;2023-11-21T07:27:16;20.20;77.60
53978;DHT22;39886;47.984;-1.586;2023-11-21T07:29:41;20.30;77.30
53978;DHT22;39886;47.984;-1.586;2023-11-21T07:32:07;20.30;77.40
53978;DHT22;39886;47.984;-1.586;2023-11-21T07:34:35;20.30;77.20
53978;DHT22;39886;47.984;-1.586;2023-11-21T07:37:01;20.40;77.00
53978;DHT22;39886;47.984;-1.586;2023-11-21T07:39:28;20.40;76.90
53978;DHT22;39886;47.984;-1.586;2023-11-21T07:41:54;20.40;76.90
53978;DHT22;39886;47.984;-1.586;2023-11-21T07:44:19;20.40;76.80
53978;DHT22;39886;47.984;-1.586;2023-11-21T07:46:46;20.50;76.50
53978;DHT22;39886;47.984;-1.586;2023-11-21T07:49:12;20.50;76.00
53978;DHT22;39886;47.984;-1.586;2023-11-21T07:51:42;20.60;76.20
53978;DHT22;39886;47.984;-1.586;2023-11-21T07:54:07;20.60;75.80
53978;DHT22;39886;47.984;-1.586;2023-11-21T07:56:33;20.60;76.00
53978;DHT22;39886;47.984;-1.586;2023-11-21T07:58:59;20.60;76.00
53978;DHT22;39886;47.984;-1.586;2023-11-21T08:01:24;20.70;75.60
53978;DHT22;39886;47.984;-1.586;2023-11-21T08:03:50;20.70;75.70
53978;DHT22;39886;47.984;-1.586;2023-11-21T08:06:18;20.80;75.70
53978;DHT22;39886;47.984;-1.586;2023-11-21T08:08:43;20.90;75.80
53978;DHT22;39886;47.984;-1.586;2023-11-21T08:11:09;20.90;76.00
53978;DHT22;39886;47.984;-1.586;2023-11-21T08:13:36;20.90;76.00
53978;DHT22;39886;47.984;-1.586;2023-11-21T08:16:02;21.00;76.30
53978;DHT22;39886;47.984;-1.586;2023-11-21T08:18:30;21.10;76.30
53978;DHT22;39886;47.984;-1.586;2023-11-21T08:20:56;21.10;76.20
53978;DHT22;39886;47.984;-1.586;2023-11-21T08:23:22;21.20;75.90
53978;DHT22;39886;47.984;-1.586;2023-11-21T08:25:52;21.30;76.00
53978;DHT22;39886;47.984;-1.586;2023-11-21T08:28:18;21.30;75.70
53978;DHT22;39886;47.984;-1.586;2023-11-21T08:30:44;21.40;75.80
53978;DHT22;39886;47.984;-1.586;2023-11-21T08:33:10;21.50;75.80
53978;DHT22;39886;47.984;-1.586;2023-11-21T08:35:37;21.50;75.80
53978;DHT22;39886;47.984;-1.586;2023-11-21T08:38:03;21.60;75.80
53978;DHT22;39886;47.984;-1.586;2023-11-21T08:40:29;21.60;75.60
53978;DHT22;39886;47.984;-1.586;2023-11-21T08:42:55;21.60;75.70
53978;DHT22;39886;47.984;-1.586;2023-11-21T08:45:21;21.60;75.50
53978;DHT22;39886;47.984;-1.586;2023-11-21T08:47:48;21.50;75.70
53978;DHT22;39886;47.984;-1.586;2023-11-21T08:50:14;21.50;75.80
53978;DHT22;39886;47.984;-1.586;2023-11-21T08:52:41;21.40;76.20
53978;DHT22;39886;47.984;-1.586;2023-11-21T08:55:08;21.30;76.60
53978;DHT22;39886;47.984;-1.586;2023-11-21T08:57:35;21.30;76.80
53978;DHT22;39886;47.984;-1.586;2023-11-21T09:00:02;21.20;76.90
53978;DHT22;39886;47.984;-1.586;2023-11-21T09:02:28;21.20;77.00
53978;DHT22;39886;47.984;-1.586;2023-11-21T09:04:54;21.20;76.90
53978;DHT22;39886;47.984;-1.586;2023-11-21T09:07:20;21.10;77.00
53978;DHT22;39886;47.984;-1.586;2023-11-21T09:09:48;21.10;77.10
53978;DHT22;39886;47.984;-1.586;2023-11-21T09:12:15;21.10;77.20
53978;DHT22;39886;47.984;-1.586;2023-11-21T09:14:42;21.10;77.30
53978;DHT22;39886;47.984;-1.586;2023-11-21T09:17:09;21.10;77.20
53978;DHT22;39886;47.984;-1.586;2023-11-21T09:19:38;21.10;77.30
53978;DHT22;39886;47.984;-1.586;2023-11-21T09:22:05;21.00;77.40
53978;DHT22;39886;47.984;-1.586;2023-11-21T09:24:31;21.00;77.40
53978;DHT22;39886;47.984;-1.586;2023-11-21T09:26:57;21.00;77.40
53978;DHT22;39886;47.984;-1.586;2023-11-21T09:29:23;21.00;77.40
53978;DHT22;39886;47.984;-1.586;2023-11-21T09:31:49;21.00;77.50
53978;DHT22;39886;47.984;-1.586;2023-11-21T09:34:17;21.00;77.60
53978;DHT22;39886;47.984;-1.586;2023-11-21T09:36:47;21.00;77.70
53978;DHT22;39886;47.984;-1.586;2023-11-21T09:39:15;20.90;77.70
53978;DHT22;39886;47.984;-1.586;2023-11-21T09:41:57;20.90;77.90
53978;DHT22;39886;47.984;-1.586;2023-11-21T09:47:09;20.90;78.00
53978;DHT22;39886;47.984;-1.586;2023-11-21T09:49:37;20.90;78.20
53978;DHT22;39886;47.984;-1.586;2023-11-21T09:52:04;20.90;78.80
53978;DHT22;39886;47.984;-1.586;2023-11-21T09:54:34;20.90;78.20
53978;DHT22;39886;47.984;-1.586;2023-11-21T09:57:00;20.90;78.20
53978;DHT22;39886;47.984;-1.586;2023-11-21T09:59:30;20.90;78.20
53978;DHT22;39886;47.984;-1.586;2023-11-21T10:01:58;20.90;78.50
53978;DHT22;39886;47.984;-1.586;2023-11-21T10:04:27;20.90;78.50
53978;DHT22;39886;47.984;-1.586;2023-11-21T10:06:54;20.90;78.70
53978;DHT22;39886;47.984;-1.586;2023-11-21T10:09:21;20.90;78.80
53978;DHT22;39886;47.984;-1.586;2023-11-21T10:11:49;20.90;78.70
53978;DHT22;39886;47.984;-1.586;2023-11-21T10:14:19;20.90;78.70
53978;DHT22;39886;47.984;-1.586;2023-11-21T10:16:47;20.90;78.70
53978;DHT22;39886;47.984;-1.586;2023-11-21T10:19:14;20.90;78.60
53978;DHT22;39886;47.984;-1.586;2023-11-21T10:21:50;20.90;78.60
53978;DHT22;39886;47.984;-1.586;2023-11-21T10:24:17;20.90;78.70
53978;DHT22;39886;47.984;-1.586;2023-11-21T10:26:43;20.90;78.70
53978;DHT22;39886;47.984;-1.586;2023-11-21T10:29:14;20.90;78.80
53978;DHT22;39886;47.984;-1.586;2023-11-21T10:31:42;21.00;79.00
53978;DHT22;39886;47.984;-1.586;2023-11-21T10:34:16;20.90;78.90
53978;DHT22;39886;47.984;-1.586;2023-11-21T10:36:42;21.00;78.90
53978;DHT22;39886;47.984;-1.586;2023-11-21T10:39:08;21.00;79.00
53978;DHT22;39886;47.984;-1.586;2023-11-21T10:41:35;21.00;79.10
53978;DHT22;39886;47.984;-1.586;2023-11-21T10:44:04;21.00;78.90
53978;DHT22;39886;47.984;-1.586;2023-11-21T10:46:33;21.00;78.90
53978;DHT22;39886;47.984;-1.586;2023-11-21T10:48:59;21.00;79.00
53978;DHT22;39886;47.984;-1.586;2023-11-21T10:51:25;21.00;79.20
53978;DHT22;39886;47.984;-1.586;2023-11-21T10:53:51;20.90;79.40
53978;DHT22;39886;47.984;-1.586;2023-11-21T10:56:18;21.00;79.10
53978;DHT22;39886;47.984;-1.586;2023-11-21T10:58:50;21.00;78.90
53978;DHT22;39886;47.984;-1.586;2023-11-21T11:01:19;21.00;79.30
53978;DHT22;39886;47.984;-1.586;2023-11-21T11:03:50;21.00;79.50
53978;DHT22;39886;47.984;-1.586;2023-11-21T11:06:16;21.00;80.00
53978;DHT22;39886;47.984;-1.586;2023-11-21T11:08:42;21.00;79.20
53978;DHT22;39886;47.984;-1.586;2023-11-21T11:11:09;21.10;79.20
53978;DHT22;39886;47.984;-1.586;2023-11-21T11:13:36;21.10;79.30
53978;DHT22;39886;47.984;-1.586;2023-11-21T11:16:03;21.00;79.20
53978;DHT22;39886;47.984;-1.586;2023-11-21T11:18:33;21.00;79.40
53978;DHT22;39886;47.984;-1.586;2023-11-21T11:21:32;21.00;79.50
53978;DHT22;39886;47.984;-1.586;2023-11-21T11:25:14;21.00;79.50
53978;DHT22;39886;47.984;-1.586;2023-11-21T11:27:48;21.00;79.60
53978;DHT22;39886;47.984;-1.586;2023-11-21T11:33:41;20.90;79.60
53978;DHT22;39886;47.984;-1.586;2023-11-21T11:36:25;20.90;79.30
53978;DHT22;39886;47.984;-1.586;2023-11-21T11:38:52;20.90;79.30
53978;DHT22;39886;47.984;-1.586;2023-11-21T11:41:26;20.90;79.40
53978;DHT22;39886;47.984;-1.586;2023-11-21T11:43:53;20.80;79.50
53978;DHT22;39886;47.984;-1.586;2023-11-21T11:46:19;20.80;79.70
53978;DHT22;39886;47.984;-1.586;2023-11-21T11:48:48;20.80;79.70
53978;DHT22;39886;47.984;-1.586;2023-11-21T11:51:14;20.80;79.70
53978;DHT22;39886;47.984;-1.586;2023-11-21T11:53:46;20.80;79.60
53978;DHT22;39886;47.984;-1.586;2023-11-21T11:56:24;20.80;79.60
53978;DHT22;39886;47.984;-1.586;2023-11-21T11:58:55;20.80;79.60
53978;DHT22;39886;47.984;-1.586;2023-11-21T12:01:21;20.70;79.50
53978;DHT22;39886;47.984;-1.586;2023-11-21T12:06:57;20.70;79.60
53978;DHT22;39886;47.984;-1.586;2023-11-21T12:09:26;20.70;79.60
53978;DHT22;39886;47.984;-1.586;2023-11-21T12:11:53;20.70;79.70
53978;DHT22;39886;47.984;-1.586;2023-11-21T12:14:20;20.70;79.40
53978;DHT22;39886;47.984;-1.586;2023-11-21T12:16:47;20.70;80.10
53978;DHT22;39886;47.984;-1.586;2023-11-21T12:19:13;20.70;79.40
53978;DHT22;39886;47.984;-1.586;2023-11-21T12:21:40;20.70;79.20
53978;DHT22;39886;47.984;-1.586;2023-11-21T12:24:09;20.70;79.20
53978;DHT22;39886;47.984;-1.586;2023-11-21T12:26:35;20.80;79.10
53978;DHT22;39886;47.984;-1.586;2023-11-21T12:29:04;20.70;79.00
53978;DHT22;39886;47.984;-1.586;2023-11-21T12:31:33;20.70;79.20
53978;DHT22;39886;47.984;-1.586;2023-11-21T12:34:00;20.70;79.30
53978;DHT22;39886;47.984;-1.586;2023-11-21T12:36:26;20.70;79.40
53978;DHT22;39886;47.984;-1.586;2023-11-21T12:38:52;20.70;80.00
53978;DHT22;39886;47.984;-1.586;2023-11-21T12:41:17;20.70;79.30
53978;DHT22;39886;47.984;-1.586;2023-11-21T12:43:43;20.70;80.00
53978;DHT22;39886;47.984;-1.586;2023-11-21T12:46:12;20.70;79.10
53978;DHT22;39886;47.984;-1.586;2023-11-21T12:48:41;20.70;78.90
53978;DHT22;39886;47.984;-1.586;2023-11-21T12:51:10;20.70;79.00
53978;DHT22;39886;47.984;-1.586;2023-11-21T12:53:38;20.80;79.20
53978;DHT22;39886;47.984;-1.586;2023-11-21T12:56:11;20.80;79.80
53978;DHT22;39886;47.984;-1.586;2023-11-21T12:58:38;20.80;79.00
53978;DHT22;39886;47.984;-1.586;2023-11-21T13:01:07;20.80;79.20
53978;DHT22;39886;47.984;-1.586;2023-11-21T13:03:43;20.80;79.30
53978;DHT22;39886;47.984;-1.586;2023-11-21T13:06:11;20.80;79.40
53978;DHT22;39886;47.984;-1.586;2023-11-21T13:08:38;20.80;79.40
53978;DHT22;39886;47.984;-1.586;2023-11-21T13:11:05;20.80;79.40
53978;DHT22;39886;47.984;-1.586;2023-11-21T13:13:31;20.80;79.50
53978;DHT22;39886;47.984;-1.586;2023-11-21T13:16:00;20.80;79.50
53978;DHT22;39886;47.984;-1.586;2023-11-21T13:18:27;20.80;79.70
53978;DHT22;39886;47.984;-1.586;2023-11-21T13:21:04;20.80;79.60
53978;DHT22;39886;47.984;-1.586;2023-11-21T13:23:35;20.90;79.80
53978;DHT22;39886;47.984;-1.586;2023-11-21T13:26:04;20.80;79.80
53978;DHT22;39886;47.984;-1.586;2023-11-21T13:28:31;20.90;80.00
53978;DHT22;39886;47.984;-1.586;2023-11-21T13:31:01;20.90;80.00
53978;DHT22;39886;47.984;-1.586;2023-11-21T13:33:35;20.80;79.90
53978;DHT22;39886;47.984;-1.586;2023-11-21T13:36:04;20.90;80.00
53978;DHT22;39886;47.984;-1.586;2023-11-21T13:38:33;20.90;80.00
53978;DHT22;39886;47.984;-1.586;2023-11-21T13:41:01;20.80;80.00
53978;DHT22;39886;47.984;-1.586;2023-11-21T13:43:27;20.80;80.00
53978;DHT22;39886;47.984;-1.586;2023-11-21T13:45:54;20.90;80.10
53978;DHT22;39886;47.984;-1.586;2023-11-21T13:48:38;20.90;80.20
53978;DHT22;39886;47.984;-1.586;2023-11-21T13:51:10;20.90;80.20
53978;DHT22;39886;47.984;-1.586;2023-11-21T13:53:46;20.90;80.00
53978;DHT22;39886;47.984;-1.586;2023-11-21T13:56:15;20.90;80.10
53978;DHT22;39886;47.984;-1.586;2023-11-21T13:58:45;20.90;80.10
53978;DHT22;39886;47.984;-1.586;2023-11-21T14:01:20;20.90;80.00
53978;DHT22;39886;47.984;-1.586;2023-11-21T14:04:02;20.90;80.10
53978;DHT22;39886;47.984;-1.586;2023-11-21T14:06:38;20.90;80.20
53978;DHT22;39886;47.984;-1.586;2023-11-21T14:09:24;20.90;80.20
53978;DHT22;39886;47.984;-1.586;2023-11-21T14:11:55;20.90;80.20
53978;DHT22;39886;47.984;-1.586;2023-11-21T14:14:24;20.90;80.10
53978;DHT22;39886;47.984;-1.586;2023-11-21T14:16:53;20.90;80.20
53978;DHT22;39886;47.984;-1.586;2023-11-21T14:19:21;20.90;80.10
53978;DHT22;39886;47.984;-1.586;2023-11-21T14:21:47;20.90;80.20
53978;DHT22;39886;47.984;-1.586;2023-11-21T14:24:16;20.90;80.20
53978;DHT22;39886;47.984;-1.586;2023-11-21T14:26:44;20.90;80.30
53978;DHT22;39886;47.984;-1.586;2023-11-21T14:29:15;20.90;80.10
53978;DHT22;39886;47.984;-1.586;2023-11-21T14:31:45;21.00;80.30
53978;DHT22;39886;47.984;-1.586;2023-11-21T14:34:11;20.90;80.50
53978;DHT22;39886;47.984;-1.586;2023-11-21T14:36:38;21.00;80.50
53978;DHT22;39886;47.984;-1.586;2023-11-21T14:39:05;21.00;80.60
53978;DHT22;39886;47.984;-1.586;2023-11-21T14:41:41;20.90;80.60
53978;DHT22;39886;47.984;-1.586;2023-11-21T14:44:09;21.00;81.30
53978;DHT22;39886;47.984;-1.586;2023-11-21T14:46:38;21.00;80.40
53978;DHT22;39886;47.984;-1.586;2023-11-21T14:49:05;21.00;80.70
53978;DHT22;39886;47.984;-1.586;2023-11-21T14:51:54;21.00;80.80
53978;DHT22;39886;47.984;-1.586;2023-11-21T14:54:29;20.90;80.70
53978;DHT22;39886;47.984;-1.586;2023-11-21T14:57:21;21.00;80.90
53978;DHT22;39886;47.984;-1.586;2023-11-21T14:59:49;21.00;80.90
53978;DHT22;39886;47.984;-1.586;2023-11-21T15:02:20;21.00;80.80
53978;DHT22;39886;47.984;-1.586;2023-11-21T15:05:09;21.00;80.70
53978;DHT22;39886;47.984;-1.586;2023-11-21T15:07:40;21.00;80.50
53978;DHT22;39886;47.984;-1.586;2023-11-21T15:10:07;21.00;80.70
53978;DHT22;39886;47.984;-1.586;2023-11-21T15:12:40;21.00;80.80
53978;DHT22;39886;47.984;-1.586;2023-11-21T15:15:06;21.00;81.00
53978;DHT22;39886;47.984;-1.586;2023-11-21T15:17:35;21.00;81.20
53978;DHT22;39886;47.984;-1.586;2023-11-21T15:20:02;20.90;82.00
53978;DHT22;39886;47.984;-1.586;2023-11-21T15:22:29;21.00;81.40
53978;DHT22;39886;47.984;-1.586;2023-11-21T15:24:55;21.00;81.30
53978;DHT22;39886;47.984;-1.586;2023-11-21T15:27:21;21.00;81.50